Terminal Aerodrome Forecast
Issued by NWS Springfield, MO

Home | Current Version | Previous Version | Text Only | Print | Product List | Glossary Off
Versions: 1 2 3 4 5 6 7 8 9 10 11 12 13

000
FTUS43 KSGF 290520
TAFSGF
TAF
KSGF 290520Z 2906/3006 16010KT P6SM BKN150 OVC200
     FM290900 17009KT P6SM VCSH SCT070 BKN200
      TEMPO 2910/2914 5SM -TSRA BR BKN050CB
     FM291500 19010KT P6SM BKN060 PROB30 2921/3001 4SM TSRA BKN045CB
     FM300100 15008KT P6SM SCT060 PROB30 3003/3006 4SM TSRA
      BKN050CB=

USA.gov is the U.S. government's official web portal to all federal, state and local government web resources and services.